Time;durP1;ratioP1;P1;durP2;ratioP2;P2;SDS_P1;SDS_P2;PMS_P1;PMS_P2;Temp;Humidity;BMP_temperature;BMP_pressure;BME280_temperature;BME280_humidity;BME280_pressure;Samples;Min_cycle;Max_cycle;Signal;HPM_P1;HPM_P2
2023/01/24 00:01:09;;;;;;;38.35;25.83;;;;;;;2.80;100.00;104036.25;10190432;28;20577;-70
2023/01/24 00:06:05;;;;;;;29.15;23.83;;;;;;;2.80;100.00;104036.25;10188418;28;20134;-70
2023/01/24 00:11:05;;;;;;;29.17;23.95;;;;;;;2.84;100.00;104027.56;10189699;28;20049;-70
2023/01/24 00:16:22;;;;;;;33.63;25.67;;;;;;;2.74;100.00;104022.44;10194320;28;20389;-70
2023/01/24 00:21:21;;;;;;;33.55;26.00;;;;;;;2.77;100.00;104023.09;10189534;28;20070;-70
2023/01/24 00:26:19;;;;;;;32.30;24.67;;;;;;;2.79;100.00;104018.34;10192734;28;20042;-70
2023/01/24 00:31:16;;;;;;;32.60;25.85;;;;;;;2.77;100.00;104009.59;10187379;28;20052;-70
2023/01/24 00:36:13;;;;;;;31.25;24.63;;;;;;;2.80;100.00;103998.41;10192831;28;20419;-70
2023/01/24 00:41:09;;;;;;;30.38;26.15;;;;;;;2.78;100.00;104005.84;10195407;28;20481;-70
2023/01/24 00:46:07;;;;;;;33.78;26.85;;;;;;;2.76;100.00;104013.31;10188687;28;20104;-70
2023/01/24 00:51:04;;;;;;;30.42;27.20;;;;;;;2.73;100.00;104014.50;10183686;28;20046;-68
2023/01/24 00:56:02;;;;;;;32.15;25.67;;;;;;;2.66;100.00;104003.59;10182119;28;20515;-68
2023/01/24 01:01:00;;;;;;;33.33;25.33;;;;;;;2.72;100.00;103992.06;10188890;28;20072;-68
2023/01/24 01:06:01;;;;;;;32.08;24.25;;;;;;;2.74;100.00;103987.31;10190910;28;20052;-68
2023/01/24 01:10:58;;;;;;;36.30;25.05;;;;;;;2.71;100.00;103984.97;10188643;28;20077;-70
2023/01/24 01:16:04;;;;;;;27.00;23.65;;;;;;;2.69;100.00;103987.03;10188221;28;20038;-69
2023/01/24 01:21:02;;;;;;;30.17;23.85;;;;;;;2.68;100.00;103982.66;10185653;28;20050;-70
2023/01/24 01:26:00;;;;;;;28.85;24.00;;;;;;;2.53;100.00;103981.81;10191164;28;20042;-71
2023/01/24 01:30:57;;;;;;;30.27;25.42;;;;;;;2.61;100.00;103984.41;10187551;28;20140;-70
2023/01/24 01:35:54;;;;;;;28.05;22.98;;;;;;;2.61;100.00;103976.31;10191998;28;20045;-70
2023/01/24 01:40:51;;;;;;;30.00;24.65;;;;;;;2.64;100.00;103978.63;10178794;28;20058;-69
2023/01/24 01:46:00;;;;;;;29.27;24.60;;;;;;;2.59;100.00;103975.63;10184639;28;20058;-70
2023/01/24 01:51:03;;;;;;;29.60;23.77;;;;;;;2.59;100.00;103975.63;10178551;28;20471;-70
2023/01/24 01:56:10;;;;;;;29.58;24.45;;;;;;;2.62;100.00;103975.28;10185885;28;20431;-70
2023/01/24 02:01:07;;;;;;;29.05;23.55;;;;;;;2.54;100.00;103978.06;10190529;28;20038;-70
2023/01/24 02:06:08;;;;;;;33.30;25.55;;;;;;;2.56;100.00;103972.50;10182129;28;20038;-70
2023/01/24 02:16:20;;;;;;;28.38;22.70;;;;;;;2.63;100.00;103970.72;10189696;28;20046;-69
2023/01/24 02:21:16;;;;;;;33.08;23.23;;;;;;;2.44;100.00;103966.69;10194298;28;20069;-70
2023/01/24 02:26:15;;;;;;;31.60;22.13;;;;;;;2.57;100.00;103966.88;10188697;28;20095;-70
2023/01/24 02:31:12;;;;;;;32.17;23.75;;;;;;;2.53;100.00;103971.00;10186779;28;20454;-70
2023/01/24 02:36:11;;;;;;;29.83;22.67;;;;;;;2.58;100.00;103979.38;10186316;28;20695;-70
2023/01/24 02:41:09;;;;;;;29.45;22.17;;;;;;;2.57;100.00;103976.84;10178264;28;20042;-70
2023/01/24 02:46:05;;;;;;;28.30;22.63;;;;;;;2.50;100.00;103977.56;10184476;28;20046;-70
2023/01/24 03:01:32;;;;;;;27.52;23.42;;;;;;;2.54;100.00;103983.47;10186277;28;20052;-69
2023/01/24 03:06:29;;;;;;;32.30;24.77;;;;;;;2.53;100.00;103988.03;10183080;28;20052;-69
2023/01/24 03:11:25;;;;;;;26.98;24.08;;;;;;;2.56;100.00;103986.81;10187136;28;20050;-69
2023/01/24 03:42:48;;;;;;;33.05;23.92;;;;;;;2.53;100.00;104004.25;10193157;28;20057;-70
2023/01/24 03:47:54;;;;;;;32.58;23.70;;;;;;;2.54;100.00;103999.66;10186948;28;20046;-70
2023/01/24 03:52:50;;;;;;;28.92;22.85;;;;;;;2.51;100.00;103997.34;10186281;28;20144;-70
2023/01/24 03:57:47;;;;;;;28.67;22.63;;;;;;;2.50;100.00;103991.09;10191031;28;20042;-71
2023/01/24 04:02:44;;;;;;;30.30;24.05;;;;;;;2.53;100.00;103992.59;10194808;28;20669;-71
2023/01/24 04:07:40;;;;;;;25.77;21.48;;;;;;;2.51;100.00;104000.06;10190160;28;20046;-70
2023/01/24 04:12:37;;;;;;;29.77;23.73;;;;;;;2.48;100.00;103995.00;10190277;28;20653;-70
2023/01/24 04:17:34;;;;;;;30.33;23.02;;;;;;;2.47;100.00;103998.72;10187490;28;20181;-70
2023/01/24 04:22:30;;;;;;;29.15;22.25;;;;;;;2.50;100.00;103998.34;10188223;28;20064;-69
2023/01/24 04:27:27;;;;;;;27.92;21.25;;;;;;;2.49;100.00;104002.09;10179524;28;20136;-69
2023/01/24 04:32:23;;;;;;;28.17;21.63;;;;;;;2.49;100.00;104007.50;10187685;28;20164;-71
2023/01/24 04:37:20;;;;;;;26.67;23.50;;;;;;;2.51;100.00;104013.56;10185113;28;20541;-71
2023/01/24 04:42:16;;;;;;;22.60;19.02;;;;;;;2.42;100.00;104006.53;10186418;28;20056;-70
2023/01/24 04:47:13;;;;;;;25.45;19.02;;;;;;;2.41;100.00;104002.97;10173244;28;20522;-70
2023/01/24 04:52:13;;;;;;;17.77;16.05;;;;;;;2.35;100.00;104005.59;10188393;28;20495;-70
2023/01/24 04:57:11;;;;;;;16.40;14.80;;;;;;;2.44;100.00;104005.34;10186703;28;20042;-70
2023/01/24 05:02:08;;;;;;;17.77;15.88;;;;;;;2.47;100.00;103998.72;10180078;28;20450;-70
2023/01/24 05:07:04;;;;;;;19.00;16.42;;;;;;;2.49;100.00;103996.69;10181034;28;20041;-70
2023/01/24 05:12:01;;;;;;;17.73;15.82;;;;;;;2.43;100.00;104000.09;10185659;28;20046;-72
2023/01/24 05:16:57;;;;;;;18.90;15.50;;;;;;;2.42;100.00;103995.75;10187831;28;20214;-72
2023/01/24 05:21:54;;;;;;;17.67;14.75;;;;;;;2.28;100.00;104000.91;10167965;28;20054;-71
2023/01/24 05:26:50;;;;;;;17.00;14.60;;;;;;;2.47;100.00;103993.31;10184675;28;20042;-72
2023/01/24 05:31:47;;;;;;;16.10;12.75;;;;;;;2.38;100.00;103994.41;10184355;28;20076;-72
2023/01/24 05:36:43;;;;;;;15.23;12.35;;;;;;;2.44;100.00;103994.53;10189432;28;20049;-73
2023/01/24 05:41:40;;;;;;;15.85;14.05;;;;;;;2.49;100.00;104002.09;10185905;28;20062;-72
2023/01/24 05:46:36;;;;;;;15.68;14.18;;;;;;;2.50;100.00;103992.94;10179461;28;20504;-72
2023/01/24 05:51:33;;;;;;;16.75;13.88;;;;;;;2.43;100.00;103992.00;10182111;28;20074;-72
2023/01/24 05:56:29;;;;;;;17.20;14.93;;;;;;;2.45;100.00;103995.38;10186250;28;20431;-72
2023/01/24 06:01:26;;;;;;;14.20;12.85;;;;;;;2.39;100.00;103996.09;10184831;28;20054;-72
2023/01/24 06:06:24;;;;;;;12.88;11.68;;;;;;;2.34;100.00;103998.50;10188212;28;20065;-72
2023/01/24 06:11:23;;;;;;;12.20;11.05;;;;;;;2.34;100.00;103985.00;10189730;28;20503;-72
2023/01/24 06:16:24;;;;;;;13.45;12.02;;;;;;;2.38;100.00;103989.03;10188918;28;20069;-72
2023/01/24 06:21:49;;;;;;;13.40;12.10;;;;;;;2.31;100.00;103997.84;10188159;28;20077;-72
2023/01/24 06:26:47;;;;;;;16.95;14.20;;;;;;;2.41;100.00;103999.44;10187851;28;20100;-72
2023/01/24 06:31:49;;;;;;;16.42;13.50;;;;;;;2.40;100.00;104011.28;10187161;28;20073;-72
2023/01/24 06:37:10;;;;;;;18.15;15.25;;;;;;;2.42;100.00;104011.94;10181425;28;20508;-72
2023/01/24 06:42:08;;;;;;;16.55;14.63;;;;;;;2.48;100.00;104016.59;10195368;28;20515;-72
2023/01/24 06:47:10;;;;;;;16.00;14.40;;;;;;;2.48;100.00;104011.19;10195171;28;20080;-72
2023/01/24 06:52:07;;;;;;;14.48;13.05;;;;;;;2.41;100.00;104015.66;10196243;28;20730;-72
2023/01/24 06:57:03;;;;;;;14.95;13.45;;;;;;;2.35;100.00;104019.09;10194475;28;20045;-72
2023/01/24 07:02:00;;;;;;;16.15;12.90;;;;;;;2.40;100.00;104019.38;10185116;28;20050;-72
2023/01/24 07:06:56;;;;;;;16.23;14.10;;;;;;;2.39;100.00;104023.09;10194361;28;20136;-72
2023/01/24 07:11:56;;;;;;;15.23;13.73;;;;;;;2.37;100.00;104025.13;10193326;28;20050;-72
2023/01/24 07:16:55;;;;;;;15.88;14.25;;;;;;;2.41;100.00;104042.66;10195827;28;20049;-72
2023/01/24 07:21:53;;;;;;;19.20;14.02;;;;;;;2.38;100.00;104048.44;10195174;28;20050;-72
2023/01/24 07:26:50;;;;;;;15.98;14.38;;;;;;;2.43;100.00;104048.72;10194211;28;20042;-72
2023/01/24 07:31:48;;;;;;;16.15;14.05;;;;;;;2.43;100.00;104051.44;10193718;28;20050;-72
2023/01/24 07:36:46;;;;;;;18.65;14.63;;;;;;;2.38;100.00;104046.56;10191963;28;20049;-72
2023/01/24 07:41:43;;;;;;;17.75;14.90;;;;;;;2.29;100.00;104056.59;10188476;28;20096;-72
2023/01/24 07:46:40;;;;;;;14.93;13.07;;;;;;;2.23;100.00;104062.72;10188410;28;20058;-72
2023/01/24 07:51:37;;;;;;;14.88;13.30;;;;;;;2.32;100.00;104066.19;10193617;28;20608;-72
2023/01/24 07:56:33;;;;;;;16.63;12.50;;;;;;;2.37;100.00;104073.75;10190597;28;20056;-72
2023/01/24 08:01:29;;;;;;;17.48;13.15;;;;;;;2.38;100.00;104075.44;10189643;28;20069;-72
2023/01/24 08:06:26;;;;;;;15.18;13.15;;;;;;;2.35;100.00;104081.22;10193486;28;20044;-72
2023/01/24 08:11:22;;;;;;;16.63;13.15;;;;;;;2.31;100.00;104073.44;10186989;28;20042;-72
2023/01/24 08:16:23;;;;;;;15.07;13.48;;;;;;;2.20;100.00;104073.88;10184224;28;20048;-72
2023/01/24 08:21:20;;;;;;;13.90;12.35;;;;;;;2.21;100.00;104080.97;10188588;28;20042;-72
2023/01/24 08:26:16;;;;;;;16.25;12.27;;;;;;;2.24;100.00;104075.19;10187186;28;20041;-72
2023/01/24 08:31:13;;;;;;;15.45;13.27;;;;;;;2.33;100.00;104088.66;10186263;28;20056;-72
2023/01/24 08:36:09;;;;;;;16.48;14.00;;;;;;;2.27;100.00;104093.72;10192657;28;20640;-72
2023/01/24 08:41:07;;;;;;;13.65;11.98;;;;;;;2.36;100.00;104091.81;10190857;28;20041;-72
2023/01/24 08:46:05;;;;;;;12.85;11.15;;;;;;;2.27;100.00;104092.88;10189596;28;20046;-72
2023/01/24 08:51:03;;;;;;;20.63;12.15;;;;;;;2.39;100.00;104093.31;10190550;28;20679;-72
2023/01/24 08:56:00;;;;;;;10.82;9.73;;;;;;;2.22;100.00;104088.03;10189958;28;20157;-71
2023/01/24 09:00:56;;;;;;;13.15;11.75;;;;;;;2.20;100.00;104086.53;10191638;28;20133;-72
2023/01/24 09:05:57;;;;;;;13.32;11.90;;;;;;;2.16;100.00;104088.75;10183579;28;20046;-72
2023/01/24 09:10:53;;;;;;;13.25;11.45;;;;;;;2.36;100.00;104090.97;10189671;28;20050;-72
2023/01/24 09:15:50;;;;;;;15.40;12.25;;;;;;;2.39;100.00;104093.31;10189832;28;20046;-72
2023/01/24 09:20:49;;;;;;;16.90;12.77;;;;;;;2.47;100.00;104095.97;10190631;28;20582;-71
2023/01/24 09:25:51;;;;;;;13.95;12.55;;;;;;;2.39;100.00;104096.00;10188433;28;20073;-72
2023/01/24 09:30:48;;;;;;;17.38;13.85;;;;;;;2.20;100.00;104094.63;10189772;28;20477;-72
2023/01/24 09:35:58;;;;;;;13.48;12.18;;;;;;;2.35;100.00;104097.41;10189316;28;20528;-72
2023/01/24 09:41:16;;;;;;;14.98;12.77;;;;;;;2.44;100.00;104101.75;10190459;28;20042;-72
2023/01/24 09:46:24;;;;;;;13.52;11.05;;;;;;;2.31;100.00;104097.75;10176831;28;20452;-72
2023/01/24 09:51:25;;;;;;;13.80;11.75;;;;;;;2.42;100.00;104103.78;10182704;28;20385;-72
2023/01/24 09:56:46;;;;;;;14.55;12.85;;;;;;;2.42;100.00;104101.91;10188556;28;20049;-72
2023/01/24 10:01:43;;;;;;;12.32;11.13;;;;;;;2.40;100.00;104103.13;10189645;28;20068;-72
2023/01/24 10:06:48;;;;;;;16.17;12.38;;;;;;;2.33;100.00;104094.06;10196856;28;20038;-72
2023/01/24 10:12:01;;;;;;;14.95;11.07;;;;;;;2.36;100.00;104099.91;10197869;28;20041;-72
2023/01/24 10:17:38;;;;;;;12.57;11.27;;;;;;;2.45;100.00;104093.44;10197141;28;20133;-72
2023/01/24 10:23:02;;;;;;;18.27;12.63;;;;;;;2.48;100.00;104084.13;10195505;28;20705;-72
2023/01/24 10:28:01;;;;;;;17.88;12.40;;;;;;;2.66;100.00;104078.41;10196568;28;20042;-72
2023/01/24 10:33:03;;;;;;;15.80;12.23;;;;;;;2.67;100.00;104069.28;10195791;28;20061;-72
2023/01/24 10:38:04;;;;;;;13.32;11.82;;;;;;;2.42;100.00;104066.81;10192070;28;20068;-72
2023/01/24 10:43:07;;;;;;;16.00;12.98;;;;;;;2.34;100.00;104064.16;10194549;28;20053;-72
2023/01/24 10:48:27;;;;;;;14.23;11.23;;;;;;;2.55;100.00;104066.16;10187033;28;20050;-72
2023/01/24 10:53:26;;;;;;;15.23;12.82;;;;;;;2.50;100.00;104063.19;10192961;28;20137;-72
2023/01/24 10:58:32;;;;;;;;;;;;;;;2.41;100.00;104053.47;10196808;28;20462;-72
2023/01/24 11:03:36;;;;;;;14.82;12.60;;;;;;;2.40;100.00;104051.78;10183613;28;19948;-72
2023/01/24 11:08:35;;;;;;;15.63;12.70;;;;;;;2.52;100.00;104051.16;10192347;28;20161;-72
2023/01/24 11:13:39;;;;;;;17.35;12.77;;;;;;;2.51;100.00;104048.66;10195924;28;20049;-72
2023/01/24 11:18:36;;;;;;;17.65;12.23;;;;;;;2.49;100.00;104058.81;10178533;28;20137;-72
2023/01/24 11:23:33;;;;;;;15.60;12.55;;;;;;;2.62;100.00;104056.34;10191592;28;20415;-72
2023/01/24 11:28:30;;;;;;;20.80;13.75;;;;;;;2.70;100.00;104048.16;10193395;28;20045;-72
2023/01/24 11:33:58;;;;;;;17.05;12.40;;;;;;;2.77;100.00;104055.53;10190715;28;20400;-72
2023/01/24 11:39:00;;;;;;;16.40;13.20;;;;;;;2.79;100.00;104034.56;10193677;28;20104;-72
2023/01/24 11:44:31;;;;;;;16.10;13.03;;;;;;;2.70;100.00;104036.50;10194861;28;20046;-72
2023/01/24 11:49:46;;;;;;;18.95;11.63;;;;;;;2.66;100.00;104036.03;10182997;28;20515;-72
2023/01/24 11:55:29;;;;;;;18.40;13.63;;;;;;;2.68;100.00;104033.97;10191894;28;20052;-72
2023/01/24 12:00:42;;;;;;;15.63;13.93;;;;;;;2.68;100.00;104027.75;10188703;28;20049;-71
2023/01/24 12:05:53;;;;;;;13.85;12.38;;;;;;;2.64;100.00;104026.41;10184072;28;20088;-72
2023/01/24 12:11:08;;;;;;;16.20;14.50;;;;;;;2.67;100.00;104026.91;10189896;28;20050;-71
2023/01/24 12:16:48;;;;;;;17.40;14.85;;;;;;;2.53;100.00;104035.81;10188460;28;20041;-72
2023/01/24 12:21:45;;;;;;;15.50;13.77;;;;;;;2.55;100.00;104028.34;10192532;28;20100;-72
2023/01/24 12:26:47;;;;;;;15.50;13.95;;;;;;;2.20;100.00;104019.88;10202157;28;20557;-72
2023/01/24 12:31:49;;;;;;;16.00;14.30;;;;;;;2.29;100.00;104013.38;10190722;28;20120;-72
2023/01/24 12:36:54;;;;;;;15.65;14.02;;;;;;;2.34;100.00;104009.31;10187204;28;20125;-72
2023/01/24 12:41:58;;;;;;;18.00;15.25;;;;;;;2.42;100.00;104006.53;10189654;28;20085;-72
2023/01/24 12:47:25;;;;;;;17.38;15.70;;;;;;;2.49;100.00;104007.50;10191411;28;20529;-72
2023/01/24 12:52:41;;;;;;;15.75;14.15;;;;;;;2.49;100.00;103994.00;10191428;28;20042;-71
2023/01/24 12:57:37;;;;;;;17.77;14.65;;;;;;;2.28;100.00;103990.13;10179891;28;20081;-72
2023/01/24 13:02:52;;;;;;;17.60;15.00;;;;;;;2.33;100.00;103981.47;10184344;28;20080;-72
2023/01/24 13:08:24;;;;;;;15.18;13.73;;;;;;;2.44;100.00;103978.31;10186735;28;20731;-71
2023/01/24 13:13:30;;;;;;;16.67;14.95;;;;;;;2.39;100.00;103963.69;10163978;28;20052;-71
2023/01/24 13:18:45;;;;;;;17.38;15.32;;;;;;;2.40;100.00;103955.41;10200310;28;20064;-72
2023/01/24 13:24:12;;;;;;;16.23;14.32;;;;;;;2.48;100.00;103958.03;10187087;28;20096;-71
2023/01/24 13:29:43;;;;;;;19.42;15.25;;;;;;;2.37;100.00;103966.59;10185836;28;20056;-72
2023/01/24 13:34:44;;;;;;;16.50;14.35;;;;;;;2.44;100.00;103966.69;10185534;28;20041;-72
2023/01/24 13:39:42;;;;;;;15.88;14.10;;;;;;;2.36;100.00;103961.34;10189938;28;20136;-72
2023/01/24 13:44:38;;;;;;;16.73;14.68;;;;;;;2.42;100.00;103963.34;10186933;28;20056;-72
2023/01/24 13:49:39;;;;;;;15.68;14.15;;;;;;;2.22;100.00;103963.81;10188642;28;20045;-71
2023/01/24 13:54:39;;;;;;;16.77;14.88;;;;;;;2.16;100.00;103964.56;10187483;28;20503;-72
2023/01/24 13:59:38;;;;;;;16.00;13.98;;;;;;;2.18;100.00;103967.94;10184959;28;20081;-71
2023/01/24 14:04:40;;;;;;;17.38;15.05;;;;;;;2.24;100.00;103964.50;10182915;28;20056;-72
2023/01/24 14:09:37;;;;;;;16.87;15.03;;;;;;;2.30;100.00;103955.66;10190032;28;20070;-72
2023/01/24 14:14:35;;;;;;;18.23;15.20;;;;;;;2.24;100.00;103961.78;10188501;28;20508;-72
2023/01/24 14:19:36;;;;;;;19.95;14.52;;;;;;;2.24;100.00;103951.00;10188903;28;20074;-72
2023/01/24 14:24:34;;;;;;;18.88;15.70;;;;;;;2.29;100.00;103959.38;10187152;28;20508;-71
2023/01/24 14:29:37;;;;;;;16.85;15.23;;;;;;;2.19;100.00;103949.88;10195895;28;20046;-72
2023/01/24 14:34:43;;;;;;;23.35;15.98;;;;;;;2.22;100.00;103950.31;10174291;28;20049;-71
2023/01/24 14:39:39;;;;;;;17.60;15.70;;;;;;;2.16;100.00;103956.47;10187794;28;20107;-71
2023/01/24 14:44:38;;;;;;;17.35;15.20;;;;;;;2.28;100.00;103952.31;10177011;28;20081;-72
2023/01/24 14:49:43;;;;;;;20.60;15.90;;;;;;;2.25;100.00;103963.47;10189985;28;20073;-71
2023/01/24 14:54:44;;;;;;;25.50;18.35;;;;;;;2.26;100.00;103956.22;10193720;28;20253;-71
2023/01/24 14:59:41;;;;;;;19.80;17.00;;;;;;;2.14;100.00;103950.41;10195587;28;20045;-72
2023/01/24 15:04:44;;;;;;;21.52;17.20;;;;;;;2.13;100.00;103948.72;10192225;28;20053;-72
2023/01/24 15:09:41;;;;;;;20.95;16.95;;;;;;;2.17;100.00;103944.66;10183017;28;20081;-71
2023/01/24 15:14:39;;;;;;;21.77;15.98;;;;;;;2.15;100.00;103946.69;10194620;28;20818;-71
2023/01/24 15:19:36;;;;;;;16.25;14.05;;;;;;;2.00;100.00;103937.72;10194067;28;20699;-70
2023/01/24 15:24:32;;;;;;;18.23;16.20;;;;;;;1.85;100.00;103930.38;10195019;28;20132;-71
2023/01/24 15:29:46;;;;;;;20.48;15.82;;;;;;;1.92;100.00;103938.59;10194401;28;20085;-71
2023/01/24 15:34:43;;;;;;;20.08;16.13;;;;;;;1.97;100.00;103935.38;10194628;28;20132;-71
2023/01/24 15:39:41;;;;;;;18.30;15.60;;;;;;;1.85;100.00;103935.78;10188568;28;20043;-70
2023/01/24 15:44:48;;;;;;;22.90;16.75;;;;;;;1.90;100.00;103943.34;10193538;28;20392;-71
2023/01/24 15:55:35;;;;;;;19.50;17.02;;;;;;;1.88;100.00;103940.84;10186169;28;20056;-71
2023/01/24 16:00:31;;;;;;;18.67;16.70;;;;;;;1.80;100.00;103938.19;10190166;28;20492;-71
2023/01/24 16:05:29;;;;;;;22.52;18.20;;;;;;;1.86;100.00;103940.19;10190906;28;20074;-71
2023/01/24 16:10:25;;;;;;;18.08;16.10;;;;;;;1.81;100.00;103945.28;10193940;28;20046;-70
2023/01/24 16:15:22;;;;;;;18.67;16.70;;;;;;;1.74;100.00;103943.47;10184466;28;20145;-71
2023/01/24 16:20:24;;;;;;;27.77;17.50;;;;;;;1.70;100.00;103953.78;10182651;28;20415;-72
2023/01/24 16:25:21;;;;;;;18.30;16.38;;;;;;;1.63;100.00;103958.22;10177472;28;21487;-71
2023/01/24 16:30:22;;;;;;;18.80;16.15;;;;;;;1.68;100.00;103942.31;10180811;28;20581;-71
2023/01/24 16:35:19;;;;;;;19.67;17.27;;;;;;;1.58;100.00;103939.00;10187055;28;20128;-71
2023/01/24 16:40:17;;;;;;;25.33;18.10;;;;;;;1.60;100.00;103939.66;10190375;28;20077;-72
2023/01/24 16:45:18;;;;;;;23.40;18.10;;;;;;;1.56;100.00;103932.97;10192492;28;20405;-71
2023/01/24 16:50:16;;;;;;;20.33;18.17;;;;;;;1.56;100.00;103930.28;10191746;28;20069;-72
2023/01/24 16:55:12;;;;;;;20.17;17.27;;;;;;;1.51;100.00;103929.94;10190934;28;20152;-71
2023/01/24 17:00:11;;;;;;;23.85;18.55;;;;;;;1.41;100.00;103936.41;10191909;28;20607;-71
2023/01/24 17:05:10;;;;;;;22.05;18.83;;;;;;;1.32;100.00;103933.94;10184733;28;20491;-71
2023/01/24 17:10:07;;;;;;;22.88;19.98;;;;;;;1.35;100.00;103934.44;10190850;28;20092;-72
2023/01/24 17:15:04;;;;;;;24.25;20.35;;;;;;;1.26;100.00;103939.03;10185367;28;20048;-71
2023/01/24 17:20:01;;;;;;;24.90;20.80;;;;;;;1.22;100.00;103939.56;10192276;28;20096;-72
2023/01/24 17:24:58;;;;;;;24.63;20.40;;;;;;;1.31;100.00;103943.91;10190250;28;20060;-71
2023/01/24 17:29:55;;;;;;;23.55;20.33;;;;;;;1.36;100.00;103930.72;10183110;28;20516;-71
2023/01/24 17:34:52;;;;;;;25.63;20.90;;;;;;;1.23;100.00;103935.84;10187654;28;20474;-71
2023/01/24 17:39:50;;;;;;;24.05;20.40;;;;;;;1.22;100.00;103928.78;10188451;28;20068;-71
2023/01/24 17:44:47;;;;;;;24.75;20.77;;;;;;;1.29;100.00;103924.34;10185983;28;20491;-71
2023/01/24 17:49:44;;;;;;;27.00;20.70;;;;;;;1.36;100.00;103919.94;10191447;28;20062;-71
2023/01/24 17:54:40;;;;;;;26.42;21.33;;;;;;;1.32;100.00;103924.00;10178239;28;20432;-71
2023/01/24 17:59:37;;;;;;;29.67;21.50;;;;;;;1.34;100.00;103921.97;10187367;28;20468;-72
2023/01/24 18:04:33;;;;;;;26.48;20.75;;;;;;;1.30;100.00;103920.66;10167582;28;20057;-71
2023/01/24 18:09:29;;;;;;;30.45;22.55;;;;;;;1.27;100.00;103926.38;10183997;28;20049;-72
2023/01/24 18:14:26;;;;;;;31.17;22.95;;;;;;;1.32;100.00;103929.38;10187538;28;20050;-71
2023/01/24 18:19:23;;;;;;;33.30;24.50;;;;;;;1.21;100.00;103932.50;10186571;28;20054;-71
2023/01/24 18:24:19;;;;;;;35.50;24.55;;;;;;;1.29;100.00;103937.84;10188884;28;20053;-71
2023/01/24 18:29:17;;;;;;;30.08;23.00;;;;;;;1.10;100.00;103932.88;10193754;28;20049;-71
2023/01/24 18:34:13;;;;;;;31.58;23.58;;;;;;;1.10;100.00;103930.19;10195241;28;20137;-71
2023/01/24 18:39:10;;;;;;;31.67;22.92;;;;;;;0.98;100.00;103932.44;10193440;28;20419;-71
2023/01/24 18:44:11;;;;;;;32.88;23.85;;;;;;;1.12;100.00;103944.34;10195613;28;20463;-71
2023/01/24 18:49:09;;;;;;;36.20;25.17;;;;;;;1.17;100.00;103936.56;10179269;28;20388;-71
2023/01/24 18:54:06;;;;;;;32.85;24.83;;;;;;;1.15;100.00;103923.25;10185106;28;20129;-71
2023/01/24 18:59:03;;;;;;;35.55;23.90;;;;;;;1.19;100.00;103923.75;10191984;28;20065;-71
2023/01/24 19:04:00;;;;;;;30.63;22.58;;;;;;;1.14;100.00;103920.72;10188819;28;20152;-71
2023/01/24 19:08:56;;;;;;;33.00;24.58;;;;;;;1.08;100.00;103907.97;10191123;28;20077;-71
2023/01/24 19:14:01;;;;;;;38.15;26.45;;;;;;;1.09;100.00;103915.03;10185196;28;20050;-72
2023/01/24 19:18:58;;;;;;;30.92;24.00;;;;;;;1.11;100.00;103910.28;10191721;28;20052;-71
2023/01/24 19:23:55;;;;;;;31.42;24.25;;;;;;;1.08;100.00;103916.03;10191514;28;20053;-71
2023/01/24 19:28:56;;;;;;;28.83;23.58;;;;;;;0.89;100.00;103918.16;10190860;28;20052;-72
2023/01/24 19:33:54;;;;;;;24.43;19.73;;;;;;;0.81;100.00;103921.72;10189765;28;20076;-71
2023/01/24 19:38:52;;;;;;;36.45;26.88;;;;;;;0.92;100.00;103917.78;10181286;28;20050;-71
2023/01/24 19:43:49;;;;;;;29.75;24.58;;;;;;;0.94;100.00;103920.31;10190989;28;20566;-72
2023/01/24 19:49:05;;;;;;;32.78;26.05;;;;;;;0.95;100.00;103928.22;10189456;28;20050;-71
2023/01/24 19:54:02;;;;;;;32.17;25.25;;;;;;;0.94;100.00;103921.16;10191912;28;20054;-71
2023/01/24 19:58:58;;;;;;;31.15;24.83;;;;;;;0.89;100.00;103928.91;10189202;28;20046;-71
2023/01/24 20:03:56;;;;;;;30.67;25.92;;;;;;;0.84;100.00;103925.91;10180029;28;20081;-71
2023/01/24 20:09:05;;;;;;;32.35;24.35;;;;;;;0.91;100.00;103932.28;10190112;28;20081;-73
2023/01/24 20:14:02;;;;;;;31.63;24.63;;;;;;;0.94;100.00;103939.19;10178045;28;20104;-71
2023/01/24 20:19:00;;;;;;;34.70;26.35;;;;;;;1.06;100.00;103940.47;10183816;28;20049;-71
2023/01/24 20:24:05;;;;;;;32.35;24.63;;;;;;;1.02;100.00;103939.13;10174881;28;20132;-71
2023/01/24 20:29:02;;;;;;;28.10;23.00;;;;;;;0.93;100.00;103943.72;10183223;28;20045;-71
2023/01/24 20:33:59;;;;;;;29.85;24.17;;;;;;;0.82;100.00;103954.88;10186206;28;20052;-72
2023/01/24 20:38:56;;;;;;;28.83;23.98;;;;;;;0.81;100.00;103948.66;10179316;28;20042;-72
2023/01/24 20:43:52;;;;;;;29.60;23.50;;;;;;;0.93;100.00;103951.81;10182705;28;20681;-72
2023/01/24 20:48:56;;;;;;;32.45;25.70;;;;;;;0.93;100.00;103961.72;10186452;28;20042;-72
2023/01/24 20:53:52;;;;;;;28.90;23.73;;;;;;;0.90;100.00;103957.53;10190119;28;20084;-73
2023/01/24 20:58:53;;;;;;;29.90;22.23;;;;;;;0.57;100.00;103957.63;10178888;28;20521;-72
2023/01/24 21:03:50;;;;;;;31.52;23.15;;;;;;;0.73;100.00;103964.81;10187834;28;20107;-72
2023/01/24 21:08:47;;;;;;;32.83;26.08;;;;;;;0.57;100.00;103957.63;10176190;28;20038;-72
2023/01/24 21:13:49;;;;;;;34.03;25.98;;;;;;;0.71;100.00;103955.25;10189630;28;20046;-72
2023/01/24 21:18:54;;;;;;;32.83;26.47;;;;;;;0.78;100.00;103951.69;10170194;28;20139;-72
2023/01/24 21:23:50;;;;;;;31.65;24.88;;;;;;;0.88;100.00;103931.78;10182931;28;20050;-72
2023/01/24 21:28:49;;;;;;;28.55;22.10;;;;;;;0.77;100.00;103924.94;10188481;28;20044;-72
2023/01/24 21:33:47;;;;;;;32.03;25.27;;;;;;;0.84;100.00;103936.69;10178520;28;20037;-72
2023/01/24 21:38:45;;;;;;;32.20;24.95;;;;;;;0.88;100.00;103937.16;10184375;28;20101;-72
2023/01/24 21:43:41;;;;;;;32.00;23.92;;;;;;;0.75;100.00;103921.56;10183783;28;20038;-72
2023/01/24 21:54:02;;;;;;;34.17;25.08;;;;;;;0.68;100.00;103921.41;10179387;28;20054;-73
2023/01/24 21:58:58;;;;;;;30.85;24.92;;;;;;;0.73;100.00;103912.81;10185085;28;20050;-72
2023/01/24 22:03:55;;;;;;;30.85;23.38;;;;;;;0.61;100.00;103915.88;10195637;28;20065;-71
2023/01/24 22:08:51;;;;;;;33.90;23.58;;;;;;;0.50;100.00;103908.16;10193999;28;20046;-70
2023/01/24 22:13:48;;;;;;;27.10;23.55;;;;;;;0.59;100.00;103907.13;10197380;28;20046;-70
2023/01/24 22:18:44;;;;;;;30.25;25.23;;;;;;;0.67;100.00;103902.72;10186631;28;20050;-70
2023/01/24 22:23:52;;;;;;;28.83;22.88;;;;;;;0.41;100.00;103890.34;10188917;28;20136;-70
2023/01/24 22:28:49;;;;;;;32.08;24.60;;;;;;;0.65;100.00;103888.59;10188231;28;20066;-70
2023/01/24 22:33:45;;;;;;;34.40;25.88;;;;;;;0.61;100.00;103888.13;10197580;28;20050;-70
2023/01/24 22:38:42;;;;;;;32.97;24.80;;;;;;;0.65;100.00;103885.91;10195807;28;20042;-70
2023/01/24 22:43:38;;;;;;;34.20;24.38;;;;;;;0.65;100.00;103878.69;10191068;28;20081;-70
2023/01/24 22:48:35;;;;;;;28.95;22.55;;;;;;;0.63;100.00;103870.75;10197707;28;20042;-70
2023/01/24 22:53:31;;;;;;;30.08;22.48;;;;;;;0.61;100.00;103866.56;10195120;28;20240;-70
2023/01/24 22:58:28;;;;;;;32.47;24.45;;;;;;;0.58;100.00;103857.00;10183077;28;20424;-70
2023/01/24 23:03:24;;;;;;;30.55;22.90;;;;;;;0.53;100.00;103848.56;10192642;28;20073;-70
2023/01/24 23:08:20;;;;;;;28.92;23.30;;;;;;;0.52;100.00;103841.53;10192132;28;20042;-70
2023/01/24 23:23:49;;;;;;;33.03;24.98;;;;;;;0.48;100.00;103840.19;10185758;28;20548;-68
2023/01/24 23:28:55;;;;;;;32.42;23.55;;;;;;;0.38;100.00;103834.16;10188481;28;20130;-69
2023/01/24 23:33:51;;;;;;;30.27;23.98;;;;;;;0.37;100.00;103833.34;10191236;28;20073;-70